sensor_id;sensor_type;location;lat;lon;timestamp;temperature;humidity
25046;DHT22;13044;49.304;12.840;2023-02-23T00:02:06;7.10;99.90
25046;DHT22;13044;49.304;12.840;2023-02-23T00:04:34;7.10;99.90
25046;DHT22;13044;49.304;12.840;2023-02-23T00:07:02;7.20;99.90
25046;DHT22;13044;49.304;12.840;2023-02-23T00:09:29;7.20;99.90
25046;DHT22;13044;49.304;12.840;2023-02-23T00:12:03;7.10;99.90
25046;DHT22;13044;49.304;12.840;2023-02-23T00:14:35;7.10;99.90
25046;DHT22;13044;49.304;12.840;2023-02-23T00:17:04;7.20;99.90
25046;DHT22;13044;49.304;12.840;2023-02-23T00:19:40;7.10;99.90
25046;DHT22;13044;49.304;12.840;2023-02-23T00:22:10;7.10;99.90
25046;DHT22;13044;49.304;12.840;2023-02-23T00:24:39;7.10;99.90
25046;DHT22;13044;49.304;12.840;2023-02-23T00:27:08;7.10;99.90
25046;DHT22;13044;49.304;12.840;2023-02-23T00:29:35;7.20;99.90
25046;DHT22;13044;49.304;12.840;2023-02-23T00:32:06;7.20;99.90
25046;DHT22;13044;49.304;12.840;2023-02-23T00:34:33;7.20;99.90
25046;DHT22;13044;49.304;12.840;2023-02-23T00:37:04;7.20;99.90
25046;DHT22;13044;49.304;12.840;2023-02-23T00:39:31;7.20;99.90
25046;DHT22;13044;49.304;12.840;2023-02-23T00:41:59;7.20;99.90
25046;DHT22;13044;49.304;12.840;2023-02-23T00:44:29;7.20;99.90
25046;DHT22;13044;49.304;12.840;2023-02-23T00:46:57;7.10;99.90
25046;DHT22;13044;49.304;12.840;2023-02-23T00:49:25;7.00;99.90
25046;DHT22;13044;49.304;12.840;2023-02-23T00:51:54;6.90;99.90
25046;DHT22;13044;49.304;12.840;2023-02-23T00:54:21;6.90;99.90
25046;DHT22;13044;49.304;12.840;2023-02-23T00:56:49;6.90;99.90
25046;DHT22;13044;49.304;12.840;2023-02-23T00:59:18;6.90;99.90
25046;DHT22;13044;49.304;12.840;2023-02-23T01:01:46;6.90;99.90
25046;DHT22;13044;49.304;12.840;2023-02-23T01:04:14;6.90;99.90
25046;DHT22;13044;49.304;12.840;2023-02-23T01:06:42;6.70;99.90
25046;DHT22;13044;49.304;12.840;2023-02-23T01:09:14;6.80;99.90
25046;DHT22;13044;49.304;12.840;2023-02-23T01:11:47;6.80;99.90
25046;DHT22;13044;49.304;12.840;2023-02-23T01:14:14;6.80;99.90
25046;DHT22;13044;49.304;12.840;2023-02-23T01:16:42;6.80;99.90
25046;DHT22;13044;49.304;12.840;2023-02-23T01:19:10;6.80;99.90
25046;DHT22;13044;49.304;12.840;2023-02-23T01:21:40;6.80;99.90
25046;DHT22;13044;49.304;12.840;2023-02-23T01:24:08;6.80;99.90
25046;DHT22;13044;49.304;12.840;2023-02-23T01:26:42;6.70;99.90
25046;DHT22;13044;49.304;12.840;2023-02-23T01:29:13;6.70;99.90
25046;DHT22;13044;49.304;12.840;2023-02-23T01:31:46;6.70;99.90
25046;DHT22;13044;49.304;12.840;2023-02-23T01:34:15;6.70;99.90
25046;DHT22;13044;49.304;12.840;2023-02-23T01:36:43;6.70;99.90
25046;DHT22;13044;49.304;12.840;2023-02-23T01:39:14;6.60;99.90
25046;DHT22;13044;49.304;12.840;2023-02-23T01:41:44;6.70;99.90
25046;DHT22;13044;49.304;12.840;2023-02-23T01:46:43;6.70;99.90
25046;DHT22;13044;49.304;12.840;2023-02-23T01:49:15;6.70;99.90
25046;DHT22;13044;49.304;12.840;2023-02-23T01:51:54;6.70;99.90
25046;DHT22;13044;49.304;12.840;2023-02-23T01:54:36;6.70;99.90
25046;DHT22;13044;49.304;12.840;2023-02-23T01:57:11;6.60;99.90
25046;DHT22;13044;49.304;12.840;2023-02-23T01:59:46;6.60;99.90
25046;DHT22;13044;49.304;12.840;2023-02-23T02:02:20;6.50;99.90
25046;DHT22;13044;49.304;12.840;2023-02-23T02:04:53;6.40;99.90
25046;DHT22;13044;49.304;12.840;2023-02-23T02:07:25;6.40;99.90
25046;DHT22;13044;49.304;12.840;2023-02-23T02:09:56;6.40;99.90
25046;DHT22;13044;49.304;12.840;2023-02-23T02:12:44;6.30;99.90
25046;DHT22;13044;49.304;12.840;2023-02-23T02:15:13;6.30;99.90
25046;DHT22;13044;49.304;12.840;2023-02-23T02:35:27;6.00;99.90
25046;DHT22;13044;49.304;12.840;2023-02-23T02:41:08;6.00;99.90
25046;DHT22;13044;49.304;12.840;2023-02-23T02:43:47;6.00;99.90
25046;DHT22;13044;49.304;12.840;2023-02-23T02:46:29;6.00;99.90
25046;DHT22;13044;49.304;12.840;2023-02-23T02:51:42;6.00;99.90
25046;DHT22;13044;49.304;12.840;2023-02-23T02:54:30;6.00;99.90
25046;DHT22;13044;49.304;12.840;2023-02-23T02:57:02;6.00;99.90
25046;DHT22;13044;49.304;12.840;2023-02-23T02:59:30;6.00;99.90
25046;DHT22;13044;49.304;12.840;2023-02-23T03:02:19;6.00;99.90
25046;DHT22;13044;49.304;12.840;2023-02-23T03:05:16;5.90;99.90
25046;DHT22;13044;49.304;12.840;2023-02-23T03:11:12;5.80;99.90
25046;DHT22;13044;49.304;12.840;2023-02-23T03:14:23;5.80;99.90
25046;DHT22;13044;49.304;12.840;2023-02-23T03:17:42;5.80;99.90
25046;DHT22;13044;49.304;12.840;2023-02-23T03:30:03;5.60;99.90
25046;DHT22;13044;49.304;12.840;2023-02-23T03:32:55;5.50;99.90
25046;DHT22;13044;49.304;12.840;2023-02-23T03:38:44;5.40;99.90
25046;DHT22;13044;49.304;12.840;2023-02-23T03:41:37;5.40;99.90
25046;DHT22;13044;49.304;12.840;2023-02-23T03:44:29;5.30;99.90
25046;DHT22;13044;49.304;12.840;2023-02-23T03:47:23;5.30;99.90
25046;DHT22;13044;49.304;12.840;2023-02-23T03:50:21;5.30;99.90
25046;DHT22;13044;49.304;12.840;2023-02-23T03:53:23;5.30;99.90
25046;DHT22;13044;49.304;12.840;2023-02-23T03:56:12;5.30;99.90
25046;DHT22;13044;49.304;12.840;2023-02-23T03:59:01;5.30;99.90
25046;DHT22;13044;49.304;12.840;2023-02-23T04:01:49;5.30;99.90
25046;DHT22;13044;49.304;12.840;2023-02-23T04:04:36;5.30;99.90
25046;DHT22;13044;49.304;12.840;2023-02-23T04:07:22;5.30;99.90
25046;DHT22;13044;49.304;12.840;2023-02-23T04:10:09;5.40;99.90
25046;DHT22;13044;49.304;12.840;2023-02-23T04:13:19;5.40;99.90
25046;DHT22;13044;49.304;12.840;2023-02-23T04:15:53;5.50;99.90
25046;DHT22;13044;49.304;12.840;2023-02-23T04:18:31;5.50;99.90
25046;DHT22;13044;49.304;12.840;2023-02-23T04:21:00;5.50;99.90
25046;DHT22;13044;49.304;12.840;2023-02-23T04:23:28;5.40;99.90
25046;DHT22;13044;49.304;12.840;2023-02-23T04:25:55;5.30;99.90
25046;DHT22;13044;49.304;12.840;2023-02-23T04:28:23;5.30;99.90
25046;DHT22;13044;49.304;12.840;2023-02-23T04:30:53;5.20;99.90
25046;DHT22;13044;49.304;12.840;2023-02-23T04:33:21;5.30;99.90
25046;DHT22;13044;49.304;12.840;2023-02-23T04:35:52;5.30;99.90
25046;DHT22;13044;49.304;12.840;2023-02-23T04:38:20;5.30;99.90
25046;DHT22;13044;49.304;12.840;2023-02-23T04:40:48;5.40;99.90
25046;DHT22;13044;49.304;12.840;2023-02-23T04:43:15;5.50;99.90
25046;DHT22;13044;49.304;12.840;2023-02-23T04:45:43;5.60;99.90
25046;DHT22;13044;49.304;12.840;2023-02-23T04:48:10;5.60;99.90
25046;DHT22;13044;49.304;12.840;2023-02-23T04:50:36;5.60;99.90
25046;DHT22;13044;49.304;12.840;2023-02-23T04:53:04;5.70;99.90
25046;DHT22;13044;49.304;12.840;2023-02-23T04:55:31;5.70;99.90
25046;DHT22;13044;49.304;12.840;2023-02-23T04:58:00;5.60;99.90
25046;DHT22;13044;49.304;12.840;2023-02-23T05:00:29;5.60;99.90
25046;DHT22;13044;49.304;12.840;2023-02-23T05:02:56;5.50;99.90
25046;DHT22;13044;49.304;12.840;2023-02-23T05:05:23;5.50;99.90
25046;DHT22;13044;49.304;12.840;2023-02-23T05:07:50;5.50;99.90
25046;DHT22;13044;49.304;12.840;2023-02-23T05:10:19;5.50;99.90
25046;DHT22;13044;49.304;12.840;2023-02-23T05:12:46;5.40;99.90
25046;DHT22;13044;49.304;12.840;2023-02-23T05:15:13;5.40;99.90
25046;DHT22;13044;49.304;12.840;2023-02-23T05:17:40;5.40;99.90
25046;DHT22;13044;49.304;12.840;2023-02-23T05:20:09;5.50;99.90
25046;DHT22;13044;49.304;12.840;2023-02-23T05:22:36;5.50;99.90
25046;DHT22;13044;49.304;12.840;2023-02-23T05:25:04;5.50;99.90
25046;DHT22;13044;49.304;12.840;2023-02-23T05:27:31;5.50;99.90
25046;DHT22;13044;49.304;12.840;2023-02-23T05:29:59;5.50;99.90
25046;DHT22;13044;49.304;12.840;2023-02-23T05:32:26;5.50;99.90
25046;DHT22;13044;49.304;12.840;2023-02-23T05:34:54;5.50;99.90
25046;DHT22;13044;49.304;12.840;2023-02-23T05:37:21;5.50;99.90
25046;DHT22;13044;49.304;12.840;2023-02-23T05:39:47;5.50;99.90
25046;DHT22;13044;49.304;12.840;2023-02-23T05:42:14;5.50;99.90
25046;DHT22;13044;49.304;12.840;2023-02-23T05:44:41;5.50;99.90
25046;DHT22;13044;49.304;12.840;2023-02-23T05:47:08;5.60;99.90
25046;DHT22;13044;49.304;12.840;2023-02-23T05:49:36;5.60;99.90
25046;DHT22;13044;49.304;12.840;2023-02-23T05:52:04;5.70;99.90
25046;DHT22;13044;49.304;12.840;2023-02-23T05:54:31;5.70;99.90
25046;DHT22;13044;49.304;12.840;2023-02-23T05:56:57;5.70;99.90
25046;DHT22;13044;49.304;12.840;2023-02-23T05:59:27;5.70;99.90
25046;DHT22;13044;49.304;12.840;2023-02-23T06:01:54;5.70;99.90
25046;DHT22;13044;49.304;12.840;2023-02-23T06:04:21;5.80;99.90
25046;DHT22;13044;49.304;12.840;2023-02-23T06:06:49;5.70;99.90
25046;DHT22;13044;49.304;12.840;2023-02-23T06:09:15;5.80;99.90
25046;DHT22;13044;49.304;12.840;2023-02-23T06:11:42;5.80;99.90
25046;DHT22;13044;49.304;12.840;2023-02-23T06:14:10;5.70;99.90
25046;DHT22;13044;49.304;12.840;2023-02-23T06:16:37;5.70;99.90
25046;DHT22;13044;49.304;12.840;2023-02-23T06:19:04;5.80;99.90
25046;DHT22;13044;49.304;12.840;2023-02-23T06:21:32;5.80;99.90
25046;DHT22;13044;49.304;12.840;2023-02-23T06:23:59;5.80;99.90
25046;DHT22;13044;49.304;12.840;2023-02-23T06:26:27;5.80;99.90
25046;DHT22;13044;49.304;12.840;2023-02-23T06:28:54;5.80;99.90
25046;DHT22;13044;49.304;12.840;2023-02-23T06:31:21;5.80;99.90
25046;DHT22;13044;49.304;12.840;2023-02-23T06:33:48;5.90;99.90
25046;DHT22;13044;49.304;12.840;2023-02-23T06:36:16;5.90;99.90
25046;DHT22;13044;49.304;12.840;2023-02-23T06:38:43;5.90;99.90
25046;DHT22;13044;49.304;12.840;2023-02-23T06:41:11;5.90;99.90
25046;DHT22;13044;49.304;12.840;2023-02-23T06:43:38;5.90;99.90
25046;DHT22;13044;49.304;12.840;2023-02-23T06:46:05;6.00;99.90
25046;DHT22;13044;49.304;12.840;2023-02-23T06:48:32;6.10;99.90
25046;DHT22;13044;49.304;12.840;2023-02-23T06:50:59;6.10;99.90
25046;DHT22;13044;49.304;12.840;2023-02-23T06:53:26;6.10;99.90
25046;DHT22;13044;49.304;12.840;2023-02-23T06:55:53;6.10;99.90
25046;DHT22;13044;49.304;12.840;2023-02-23T06:58:20;6.10;99.90
25046;DHT22;13044;49.304;12.840;2023-02-23T07:00:47;6.10;99.90
25046;DHT22;13044;49.304;12.840;2023-02-23T07:03:14;6.20;99.90
25046;DHT22;13044;49.304;12.840;2023-02-23T07:05:40;6.20;99.90
25046;DHT22;13044;49.304;12.840;2023-02-23T07:08:07;6.20;99.90
25046;DHT22;13044;49.304;12.840;2023-02-23T07:10:34;6.30;99.90
25046;DHT22;13044;49.304;12.840;2023-02-23T07:13:01;6.30;99.90
25046;DHT22;13044;49.304;12.840;2023-02-23T07:15:28;6.40;99.90
25046;DHT22;13044;49.304;12.840;2023-02-23T07:17:55;6.40;99.90
25046;DHT22;13044;49.304;12.840;2023-02-23T07:20:22;6.40;99.90
25046;DHT22;13044;49.304;12.840;2023-02-23T07:22:49;6.50;99.90
25046;DHT22;13044;49.304;12.840;2023-02-23T07:25:17;6.50;99.90
25046;DHT22;13044;49.304;12.840;2023-02-23T07:27:44;6.60;99.90
25046;DHT22;13044;49.304;12.840;2023-02-23T07:30:11;6.60;99.90
25046;DHT22;13044;49.304;12.840;2023-02-23T07:32:39;6.60;99.90
25046;DHT22;13044;49.304;12.840;2023-02-23T07:35:07;6.70;99.90
25046;DHT22;13044;49.304;12.840;2023-02-23T07:37:34;6.70;99.90
25046;DHT22;13044;49.304;12.840;2023-02-23T07:40:01;6.70;99.90
25046;DHT22;13044;49.304;12.840;2023-02-23T07:42:28;6.70;99.90
25046;DHT22;13044;49.304;12.840;2023-02-23T07:44:55;6.80;99.90
25046;DHT22;13044;49.304;12.840;2023-02-23T07:47:22;6.90;99.90
25046;DHT22;13044;49.304;12.840;2023-02-23T07:49:57;6.90;99.90
25046;DHT22;13044;49.304;12.840;2023-02-23T07:52:25;6.90;99.90
25046;DHT22;13044;49.304;12.840;2023-02-23T07:54:52;6.90;99.90
25046;DHT22;13044;49.304;12.840;2023-02-23T07:57:20;6.90;99.90
25046;DHT22;13044;49.304;12.840;2023-02-23T07:59:50;7.00;99.90
25046;DHT22;13044;49.304;12.840;2023-02-23T08:02:17;7.00;99.90
25046;DHT22;13044;49.304;12.840;2023-02-23T08:04:43;7.10;99.90
25046;DHT22;13044;49.304;12.840;2023-02-23T08:07:10;7.10;99.90
25046;DHT22;13044;49.304;12.840;2023-02-23T08:09:37;7.20;99.90
25046;DHT22;13044;49.304;12.840;2023-02-23T08:12:04;7.20;99.90
25046;DHT22;13044;49.304;12.840;2023-02-23T08:14:31;7.30;99.90
25046;DHT22;13044;49.304;12.840;2023-02-23T08:16:58;7.30;99.90
25046;DHT22;13044;49.304;12.840;2023-02-23T08:19:27;7.30;99.90
25046;DHT22;13044;49.304;12.840;2023-02-23T08:21:54;7.30;99.90
25046;DHT22;13044;49.304;12.840;2023-02-23T08:24:22;7.40;99.90
25046;DHT22;13044;49.304;12.840;2023-02-23T08:26:50;7.40;99.90
25046;DHT22;13044;49.304;12.840;2023-02-23T08:29:17;7.50;99.90
25046;DHT22;13044;49.304;12.840;2023-02-23T08:31:44;7.60;99.90
25046;DHT22;13044;49.304;12.840;2023-02-23T08:34:12;7.70;99.90
25046;DHT22;13044;49.304;12.840;2023-02-23T08:36:39;7.80;99.90
25046;DHT22;13044;49.304;12.840;2023-02-23T08:39:06;7.90;99.90
25046;DHT22;13044;49.304;12.840;2023-02-23T08:41:35;8.00;99.90
25046;DHT22;13044;49.304;12.840;2023-02-23T08:44:02;8.20;99.90
25046;DHT22;13044;49.304;12.840;2023-02-23T08:46:29;8.30;99.90
25046;DHT22;13044;49.304;12.840;2023-02-23T08:48:56;8.40;99.90
25046;DHT22;13044;49.304;12.840;2023-02-23T08:51:24;8.50;99.90
25046;DHT22;13044;49.304;12.840;2023-02-23T08:53:51;8.60;99.90
25046;DHT22;13044;49.304;12.840;2023-02-23T08:56:18;8.70;99.90
25046;DHT22;13044;49.304;12.840;2023-02-23T08:58:45;8.90;99.90
25046;DHT22;13044;49.304;12.840;2023-02-23T09:01:16;9.00;99.90
25046;DHT22;13044;49.304;12.840;2023-02-23T09:03:45;9.10;99.90
25046;DHT22;13044;49.304;12.840;2023-02-23T09:06:15;9.20;99.90
25046;DHT22;13044;49.304;12.840;2023-02-23T09:08:44;9.40;99.90
25046;DHT22;13044;49.304;12.840;2023-02-23T09:11:11;9.40;99.90
25046;DHT22;13044;49.304;12.840;2023-02-23T09:13:38;9.50;99.90
25046;DHT22;13044;49.304;12.840;2023-02-23T09:16:05;9.60;99.90
25046;DHT22;13044;49.304;12.840;2023-02-23T09:18:36;9.70;99.90
25046;DHT22;13044;49.304;12.840;2023-02-23T09:21:05;9.80;99.90
25046;DHT22;13044;49.304;12.840;2023-02-23T09:23:34;9.80;99.90
25046;DHT22;13044;49.304;12.840;2023-02-23T09:26:06;9.90;99.90
25046;DHT22;13044;49.304;12.840;2023-02-23T09:28:34;10.00;99.90
25046;DHT22;13044;49.304;12.840;2023-02-23T09:31:07;10.10;99.90
25046;DHT22;13044;49.304;12.840;2023-02-23T09:33:35;10.10;99.90
25046;DHT22;13044;49.304;12.840;2023-02-23T09:36:10;10.20;99.90
25046;DHT22;13044;49.304;12.840;2023-02-23T09:38:46;10.30;99.90
25046;DHT22;13044;49.304;12.840;2023-02-23T09:41:53;10.30;99.90
25046;DHT22;13044;49.304;12.840;2023-02-23T09:50:24;10.40;99.90
25046;DHT22;13044;49.304;12.840;2023-02-23T09:53:44;10.30;99.90
25046;DHT22;13044;49.304;12.840;2023-02-23T09:55:54;10.40;99.90
25046;DHT22;13044;49.304;12.840;2023-02-23T09:58:28;10.40;99.90
25046;DHT22;13044;49.304;12.840;2023-02-23T10:04:11;10.60;99.90
25046;DHT22;13044;49.304;12.840;2023-02-23T10:07:18;10.70;99.90
25046;DHT22;13044;49.304;12.840;2023-02-23T10:13:12;10.60;99.90
25046;DHT22;13044;49.304;12.840;2023-02-23T10:19:02;10.40;99.90
25046;DHT22;13044;49.304;12.840;2023-02-23T10:21:42;10.50;99.90
25046;DHT22;13044;49.304;12.840;2023-02-23T10:27:28;10.50;99.90
25046;DHT22;13044;49.304;12.840;2023-02-23T10:29:59;10.60;99.90
25046;DHT22;13044;49.304;12.840;2023-02-23T10:32:40;10.70;99.90
25046;DHT22;13044;49.304;12.840;2023-02-23T10:35:17;10.80;99.90
25046;DHT22;13044;49.304;12.840;2023-02-23T10:37:47;10.80;99.90
25046;DHT22;13044;49.304;12.840;2023-02-23T10:40:18;10.80;99.90
25046;DHT22;13044;49.304;12.840;2023-02-23T10:42:51;10.80;99.90
25046;DHT22;13044;49.304;12.840;2023-02-23T10:45:22;10.80;99.90
25046;DHT22;13044;49.304;12.840;2023-02-23T10:47:59;10.80;99.90
25046;DHT22;13044;49.304;12.840;2023-02-23T10:50:31;10.90;99.90
25046;DHT22;13044;49.304;12.840;2023-02-23T10:53:13;10.90;99.90
25046;DHT22;13044;49.304;12.840;2023-02-23T10:55:46;11.00;99.90
25046;DHT22;13044;49.304;12.840;2023-02-23T10:58:16;11.10;99.90
25046;DHT22;13044;49.304;12.840;2023-02-23T11:03:45;11.40;99.90
25046;DHT22;13044;49.304;12.840;2023-02-23T11:06:32;11.50;99.90
25046;DHT22;13044;49.304;12.840;2023-02-23T11:09:30;11.70;99.90
25046;DHT22;13044;49.304;12.840;2023-02-23T11:14:57;11.80;99.90
25046;DHT22;13044;49.304;12.840;2023-02-23T11:17:33;11.90;99.90
25046;DHT22;13044;49.304;12.840;2023-02-23T11:20:17;11.90;99.90
25046;DHT22;13044;49.304;12.840;2023-02-23T11:22:52;11.90;99.90
25046;DHT22;13044;49.304;12.840;2023-02-23T11:25:30;12.00;99.90
25046;DHT22;13044;49.304;12.840;2023-02-23T11:27:59;11.90;99.90
25046;DHT22;13044;49.304;12.840;2023-02-23T11:30:34;11.80;99.90
25046;DHT22;13044;49.304;12.840;2023-02-23T11:33:15;11.60;99.90
25046;DHT22;13044;49.304;12.840;2023-02-23T11:35:45;11.60;99.90
25046;DHT22;13044;49.304;12.840;2023-02-23T11:38:22;11.60;99.90
25046;DHT22;13044;49.304;12.840;2023-02-23T11:41:03;11.50;99.90
25046;DHT22;13044;49.304;12.840;2023-02-23T11:43:32;11.50;99.90
25046;DHT22;13044;49.304;12.840;2023-02-23T11:46:01;11.60;99.90
25046;DHT22;13044;49.304;12.840;2023-02-23T11:48:51;11.80;99.90
25046;DHT22;13044;49.304;12.840;2023-02-23T11:51:47;12.00;99.90
25046;DHT22;13044;49.304;12.840;2023-02-23T11:56:54;12.50;99.90
25046;DHT22;13044;49.304;12.840;2023-02-23T11:59:29;12.80;99.90
25046;DHT22;13044;49.304;12.840;2023-02-23T12:02:28;12.70;99.90
25046;DHT22;13044;49.304;12.840;2023-02-23T12:05:08;12.70;99.90
25046;DHT22;13044;49.304;12.840;2023-02-23T12:10:33;12.70;99.90
25046;DHT22;13044;49.304;12.840;2023-02-23T12:13:08;12.80;99.90
25046;DHT22;13044;49.304;12.840;2023-02-23T12:19:19;13.10;99.90
25046;DHT22;13044;49.304;12.840;2023-02-23T12:21:57;13.00;99.90
25046;DHT22;13044;49.304;12.840;2023-02-23T12:24:39;12.90;99.90
25046;DHT22;13044;49.304;12.840;2023-02-23T12:30:16;12.90;99.90
25046;DHT22;13044;49.304;12.840;2023-02-23T12:38:18;13.00;99.90
25046;DHT22;13044;49.304;12.840;2023-02-23T12:44:48;13.10;99.90
25046;DHT22;13044;49.304;12.840;2023-02-23T12:47:12;13.10;99.90
25046;DHT22;13044;49.304;12.840;2023-02-23T12:49:51;13.20;99.90
25046;DHT22;13044;49.304;12.840;2023-02-23T12:52:32;13.30;99.90
25046;DHT22;13044;49.304;12.840;2023-02-23T12:55:03;13.40;99.90
25046;DHT22;13044;49.304;12.840;2023-02-23T12:58:06;13.40;99.90
25046;DHT22;13044;49.304;12.840;2023-02-23T13:03:53;13.30;99.90
25046;DHT22;13044;49.304;12.840;2023-02-23T13:12:25;13.30;99.90
25046;DHT22;13044;49.304;12.840;2023-02-23T13:15:23;13.40;99.90
25046;DHT22;13044;49.304;12.840;2023-02-23T13:18:06;13.40;99.90
25046;DHT22;13044;49.304;12.840;2023-02-23T13:23:23;13.40;99.90
25046;DHT22;13044;49.304;12.840;2023-02-23T13:29:03;13.30;99.90
25046;DHT22;13044;49.304;12.840;2023-02-23T13:31:39;13.40;99.90
25046;DHT22;13044;49.304;12.840;2023-02-23T13:34:28;13.60;99.90
25046;DHT22;13044;49.304;12.840;2023-02-23T13:36:59;13.60;99.90
25046;DHT22;13044;49.304;12.840;2023-02-23T13:39:37;13.50;99.90
25046;DHT22;13044;49.304;12.840;2023-02-23T13:42:33;13.60;99.90
25046;DHT22;13044;49.304;12.840;2023-02-23T13:48:41;13.30;99.90
25046;DHT22;13044;49.304;12.840;2023-02-23T13:51:46;13.30;99.90
25046;DHT22;13044;49.304;12.840;2023-02-23T13:56:52;13.20;99.90
25046;DHT22;13044;49.304;12.840;2023-02-23T13:59:25;13.30;99.90
25046;DHT22;13044;49.304;12.840;2023-02-23T14:02:01;13.30;99.90
25046;DHT22;13044;49.304;12.840;2023-02-23T14:08:04;13.30;99.90
25046;DHT22;13044;49.304;12.840;2023-02-23T14:10:37;13.30;99.90
25046;DHT22;13044;49.304;12.840;2023-02-23T14:15:42;13.00;99.90
25046;DHT22;13044;49.304;12.840;2023-02-23T14:24:02;12.90;99.90
25046;DHT22;13044;49.304;12.840;2023-02-23T14:26:43;13.00;99.90
25046;DHT22;13044;49.304;12.840;2023-02-23T14:29:20;12.90;99.90
25046;DHT22;13044;49.304;12.840;2023-02-23T14:34:49;12.80;99.90
25046;DHT22;13044;49.304;12.840;2023-02-23T14:37:35;12.90;99.90
25046;DHT22;13044;49.304;12.840;2023-02-23T14:40:23;12.80;99.90
25046;DHT22;13044;49.304;12.840;2023-02-23T14:43:00;12.80;99.90
25046;DHT22;13044;49.304;12.840;2023-02-23T14:45:32;12.70;99.90
25046;DHT22;13044;49.304;12.840;2023-02-23T14:48:10;12.60;99.90
25046;DHT22;13044;49.304;12.840;2023-02-23T14:50:40;12.70;99.90
25046;DHT22;13044;49.304;12.840;2023-02-23T14:53:18;12.70;99.90
25046;DHT22;13044;49.304;12.840;2023-02-23T14:55:47;12.70;99.90
25046;DHT22;13044;49.304;12.840;2023-02-23T14:58:30;12.60;99.90
25046;DHT22;13044;49.304;12.840;2023-02-23T15:01:01;12.60;99.90
25046;DHT22;13044;49.304;12.840;2023-02-23T15:03:29;12.60;99.90
25046;DHT22;13044;49.304;12.840;2023-02-23T15:05:59;12.70;99.90
25046;DHT22;13044;49.304;12.840;2023-02-23T15:08:29;12.60;99.90
25046;DHT22;13044;49.304;12.840;2023-02-23T15:11:10;12.60;99.90
25046;DHT22;13044;49.304;12.840;2023-02-23T15:13:46;12.40;99.90
25046;DHT22;13044;49.304;12.840;2023-02-23T15:16:32;12.40;99.90
25046;DHT22;13044;49.304;12.840;2023-02-23T15:19:02;12.30;99.90
25046;DHT22;13044;49.304;12.840;2023-02-23T15:21:30;12.30;99.90
25046;DHT22;13044;49.304;12.840;2023-02-23T15:24:09;12.30;99.90
25046;DHT22;13044;49.304;12.840;2023-02-23T15:26:39;12.30;99.90
25046;DHT22;13044;49.304;12.840;2023-02-23T15:31:37;12.30;99.90
25046;DHT22;13044;49.304;12.840;2023-02-23T15:34:10;12.30;99.90
25046;DHT22;13044;49.304;12.840;2023-02-23T15:36:38;12.20;99.90
25046;DHT22;13044;49.304;12.840;2023-02-23T15:39:13;12.20;99.90
25046;DHT22;13044;49.304;12.840;2023-02-23T15:41:45;12.20;99.90
25046;DHT22;13044;49.304;12.840;2023-02-23T15:44:25;12.20;99.90
25046;DHT22;13044;49.304;12.840;2023-02-23T15:47:20;12.10;99.90
25046;DHT22;13044;49.304;12.840;2023-02-23T15:50:06;12.10;99.90
25046;DHT22;13044;49.304;12.840;2023-02-23T15:52:42;12.00;99.90
25046;DHT22;13044;49.304;12.840;2023-02-23T15:55:19;11.90;99.90
25046;DHT22;13044;49.304;12.840;2023-02-23T15:57:56;11.90;99.90
25046;DHT22;13044;49.304;12.840;2023-02-23T16:00:38;11.80;99.90
25046;DHT22;13044;49.304;12.840;2023-02-23T16:03:27;11.80;99.90
25046;DHT22;13044;49.304;12.840;2023-02-23T16:06:07;11.70;99.90
25046;DHT22;13044;49.304;12.840;2023-02-23T16:08:58;11.70;99.90
25046;DHT22;13044;49.304;12.840;2023-02-23T16:12:11;11.60;99.90
25046;DHT22;13044;49.304;12.840;2023-02-23T16:14:48;11.50;99.90
25046;DHT22;13044;49.304;12.840;2023-02-23T16:17:44;11.50;99.90
25046;DHT22;13044;49.304;12.840;2023-02-23T16:22:55;11.50;99.90
25046;DHT22;13044;49.304;12.840;2023-02-23T16:25:25;11.50;99.90
25046;DHT22;13044;49.304;12.840;2023-02-23T16:28:11;11.40;99.90
25046;DHT22;13044;49.304;12.840;2023-02-23T16:30:49;11.30;99.90
25046;DHT22;13044;49.304;12.840;2023-02-23T16:33:30;11.20;99.90
25046;DHT22;13044;49.304;12.840;2023-02-23T16:36:16;11.20;99.90
25046;DHT22;13044;49.304;12.840;2023-02-23T16:39:00;11.30;99.90
25046;DHT22;13044;49.304;12.840;2023-02-23T16:41:32;11.30;99.90
25046;DHT22;13044;49.304;12.840;2023-02-23T16:44:02;11.30;99.90
25046;DHT22;13044;49.304;12.840;2023-02-23T16:49:36;11.30;99.90
25046;DHT22;13044;49.304;12.840;2023-02-23T16:52:14;11.40;99.90
25046;DHT22;13044;49.304;12.840;2023-02-23T16:54:43;11.40;99.90
25046;DHT22;13044;49.304;12.840;2023-02-23T16:57:28;11.40;99.90
25046;DHT22;13044;49.304;12.840;2023-02-23T17:00:07;11.40;99.90
25046;DHT22;13044;49.304;12.840;2023-02-23T17:02:40;11.40;99.90
25046;DHT22;13044;49.304;12.840;2023-02-23T17:05:16;11.40;99.90
25046;DHT22;13044;49.304;12.840;2023-02-23T17:07:46;11.30;99.90
25046;DHT22;13044;49.304;12.840;2023-02-23T17:10:20;11.30;99.90
25046;DHT22;13044;49.304;12.840;2023-02-23T17:12:57;11.30;99.90
25046;DHT22;13044;49.304;12.840;2023-02-23T17:15:40;11.30;99.90
25046;DHT22;13044;49.304;12.840;2023-02-23T17:18:13;11.20;99.90
25046;DHT22;13044;49.304;12.840;2023-02-23T17:20:40;11.20;99.90
25046;DHT22;13044;49.304;12.840;2023-02-23T17:23:07;11.20;99.90
25046;DHT22;13044;49.304;12.840;2023-02-23T17:25:34;11.20;99.90
25046;DHT22;13044;49.304;12.840;2023-02-23T17:28:02;11.10;99.90
25046;DHT22;13044;49.304;12.840;2023-02-23T17:30:29;11.10;99.90
25046;DHT22;13044;49.304;12.840;2023-02-23T17:32:57;11.10;99.90
25046;DHT22;13044;49.304;12.840;2023-02-23T17:35:25;11.10;99.90
25046;DHT22;13044;49.304;12.840;2023-02-23T17:37:52;11.00;99.90
25046;DHT22;13044;49.304;12.840;2023-02-23T17:40:22;11.00;99.90
25046;DHT22;13044;49.304;12.840;2023-02-23T17:42:55;11.10;99.90
25046;DHT22;13044;49.304;12.840;2023-02-23T17:45:24;11.10;99.90
25046;DHT22;13044;49.304;12.840;2023-02-23T17:47:52;11.10;99.90
25046;DHT22;13044;49.304;12.840;2023-02-23T17:50:20;11.00;99.90
25046;DHT22;13044;49.304;12.840;2023-02-23T17:52:48;11.00;99.90
25046;DHT22;13044;49.304;12.840;2023-02-23T17:55:16;11.00;99.90
25046;DHT22;13044;49.304;12.840;2023-02-23T17:57:44;11.00;99.90
25046;DHT22;13044;49.304;12.840;2023-02-23T18:00:13;11.00;99.90
25046;DHT22;13044;49.304;12.840;2023-02-23T18:02:42;11.00;99.90
25046;DHT22;13044;49.304;12.840;2023-02-23T18:05:10;10.80;99.90
25046;DHT22;13044;49.304;12.840;2023-02-23T18:07:37;10.70;99.90
25046;DHT22;13044;49.304;12.840;2023-02-23T18:10:05;10.60;99.90
25046;DHT22;13044;49.304;12.840;2023-02-23T18:12:33;10.70;99.90
25046;DHT22;13044;49.304;12.840;2023-02-23T18:15:00;10.70;99.90
25046;DHT22;13044;49.304;12.840;2023-02-23T18:17:27;10.60;99.90